createdAt,value
2022-12-09T00:00:08.187Z,2.30
2022-12-09T00:02:58.920Z,2.30
2022-12-09T00:05:27.357Z,2.30
2022-12-09T00:07:55.922Z,2.32
2022-12-09T00:10:24.027Z,2.35
2022-12-09T00:12:55.202Z,2.37
2022-12-09T00:15:23.600Z,2.38
2022-12-09T00:17:51.856Z,2.36
2022-12-09T00:20:19.976Z,2.38
2022-12-09T00:22:48.048Z,2.38
2022-12-09T00:25:16.196Z,2.38
2022-12-09T00:27:43.997Z,2.39
2022-12-09T00:30:12.242Z,2.37
2022-12-09T00:32:40.817Z,2.37
2022-12-09T00:35:09.164Z,2.35
2022-12-09T00:37:37.271Z,2.33
2022-12-09T00:40:08.255Z,2.31
2022-12-09T00:42:36.699Z,2.31
2022-12-09T00:45:05.613Z,2.32
2022-12-09T00:47:35.849Z,2.33
2022-12-09T00:50:06.225Z,2.33
2022-12-09T00:52:35.549Z,2.34
2022-12-09T00:55:03.783Z,2.33
2022-12-09T00:57:32.205Z,2.32
2022-12-09T01:00:00.405Z,2.31
2022-12-09T01:02:28.665Z,2.31
2022-12-09T01:05:00.208Z,2.31
2022-12-09T01:07:28.592Z,2.29
2022-12-09T01:09:56.785Z,2.28
2022-12-09T01:12:24.698Z,2.28
2022-12-09T01:14:52.921Z,2.28
2022-12-09T01:17:21.399Z,2.27
2022-12-09T01:19:49.333Z,2.26
2022-12-09T01:22:17.975Z,2.25
2022-12-09T01:24:46.596Z,2.23
2022-12-09T01:27:16.184Z,2.22
2022-12-09T01:29:44.350Z,2.21
2022-12-09T01:32:13.637Z,2.21
2022-12-09T01:34:41.962Z,2.21
2022-12-09T01:37:10.146Z,2.21
2022-12-09T01:39:38.513Z,2.20
2022-12-09T01:42:06.879Z,2.19
2022-12-09T01:44:35.020Z,2.18
2022-12-09T01:47:03.158Z,2.17
2022-12-09T01:49:42.526Z,2.15
2022-12-09T01:52:18.012Z,2.14
2022-12-09T01:54:48.637Z,2.14
2022-12-09T01:57:17.339Z,2.15
2022-12-09T01:59:46.134Z,2.16
2022-12-09T02:02:17.800Z,2.15
2022-12-09T02:04:49.833Z,2.17
2022-12-09T02:07:19.290Z,2.17
2022-12-09T02:09:47.866Z,2.18
2022-12-09T02:12:30.027Z,2.18
2022-12-09T02:15:05.989Z,2.18
2022-12-09T02:17:47.048Z,2.19
2022-12-09T02:20:19.311Z,2.19
2022-12-09T02:22:57.429Z,2.19
2022-12-09T02:25:45.865Z,2.18
2022-12-09T02:28:35.816Z,2.18
2022-12-09T02:31:42.601Z,2.17
2022-12-09T02:34:19.770Z,2.14
2022-12-09T02:37:08.574Z,2.13
2022-12-09T02:39:52.285Z,2.12
2022-12-09T02:42:24.692Z,2.10
2022-12-09T02:44:53.347Z,2.08
2022-12-09T02:47:27.696Z,2.07
2022-12-09T02:50:02.345Z,2.05
2022-12-09T02:52:32.681Z,2.03
2022-12-09T02:55:04.388Z,2.01
2022-12-09T02:57:36.023Z,1.99
2022-12-09T03:00:06.820Z,1.98
2022-12-09T03:02:41.447Z,1.98
2022-12-09T03:05:23.904Z,1.97
2022-12-09T03:08:16.485Z,1.98
2022-12-09T03:11:03.914Z,1.98
2022-12-09T03:14:04.392Z,1.99
2022-12-09T03:16:37.658Z,2.02
2022-12-09T03:19:19.290Z,2.03
2022-12-09T03:21:52.361Z,2.04
2022-12-09T03:24:27.213Z,2.07
2022-12-09T03:26:56.093Z,2.09
2022-12-09T03:29:29.801Z,2.10
2022-12-09T03:31:59.555Z,2.14
2022-12-09T03:34:34.416Z,2.95
2022-12-09T03:37:04.795Z,3.89
2022-12-09T03:39:37.590Z,4.01
2022-12-09T03:42:15.381Z,3.84
2022-12-09T03:44:57.326Z,3.78
2022-12-09T03:47:25.839Z,3.76
2022-12-09T03:49:54.770Z,3.87
2022-12-09T03:52:40.345Z,3.73
2022-12-09T03:55:24.424Z,3.59
2022-12-09T03:57:57.461Z,3.51
2022-12-09T04:00:25.864Z,3.46
2022-12-09T04:02:54.350Z,3.33
2022-12-09T04:05:22.732Z,3.19
2022-12-09T04:07:51.103Z,3.10
2022-12-09T04:10:19.494Z,3.08
2022-12-09T04:12:48.800Z,3.04
2022-12-09T04:15:16.925Z,3.00
2022-12-09T04:17:45.366Z,2.92
2022-12-09T04:20:14.054Z,2.90
2022-12-09T04:22:43.364Z,2.86
2022-12-09T04:25:11.288Z,2.77
2022-12-09T04:27:39.619Z,2.70
2022-12-09T04:30:10.490Z,2.61
2022-12-09T04:32:38.749Z,2.54
2022-12-09T04:35:07.326Z,2.49
2022-12-09T04:37:37.498Z,2.41
2022-12-09T04:40:07.743Z,2.38
2022-12-09T04:42:36.243Z,2.34
2022-12-09T04:45:05.025Z,2.27
2022-12-09T04:47:34.426Z,2.22
2022-12-09T04:50:02.920Z,2.19
2022-12-09T04:52:30.983Z,2.23
2022-12-09T04:55:01.082Z,2.19
2022-12-09T04:57:30.271Z,2.10
2022-12-09T04:59:58.203Z,2.05
2022-12-09T05:02:26.807Z,2.01
2022-12-09T05:04:55.284Z,1.98
2022-12-09T05:07:24.005Z,1.94
2022-12-09T05:09:52.480Z,1.91
2022-12-09T05:12:21.462Z,1.88
2022-12-09T05:14:49.627Z,1.87
2022-12-09T05:17:18.072Z,1.87
2022-12-09T05:19:46.438Z,1.84
2022-12-09T05:22:17.773Z,1.81
2022-12-09T05:24:47.549Z,1.78
2022-12-09T05:27:16.781Z,1.75
2022-12-09T05:29:44.854Z,1.73
2022-12-09T05:32:13.183Z,1.73
2022-12-09T05:34:41.956Z,1.73
2022-12-09T05:37:15.325Z,1.75
2022-12-09T05:39:44.228Z,1.75
2022-12-09T05:42:12.209Z,1.77
2022-12-09T05:44:40.078Z,1.78
2022-12-09T05:47:08.674Z,1.79
2022-12-09T05:49:38.994Z,1.80
2022-12-09T05:52:07.370Z,1.82
2022-12-09T05:54:36.143Z,1.84
2022-12-09T05:57:04.450Z,1.85
2022-12-09T05:59:32.825Z,1.88
2022-12-09T06:02:05.119Z,1.92
2022-12-09T06:04:36.889Z,1.90
2022-12-09T06:07:05.541Z,1.86
2022-12-09T06:09:34.502Z,1.84
2022-12-09T06:12:03.749Z,1.85
2022-12-09T06:14:31.979Z,1.86
2022-12-09T06:17:00.179Z,1.86
2022-12-09T06:19:28.327Z,1.87
2022-12-09T06:21:57.254Z,1.87
2022-12-09T06:24:25.160Z,1.88
2022-12-09T06:26:54.577Z,1.93
2022-12-09T06:29:23.501Z,1.97
2022-12-09T06:31:51.498Z,1.95
2022-12-09T06:34:19.543Z,1.94
2022-12-09T06:36:48.055Z,1.94
2022-12-09T06:39:16.482Z,1.95
2022-12-09T06:41:44.489Z,1.94
2022-12-09T06:44:19.758Z,1.92
2022-12-09T06:46:51.609Z,1.91
2022-12-09T06:49:20.658Z,1.92
2022-12-09T06:51:48.587Z,1.92
2022-12-09T06:54:16.803Z,1.90
2022-12-09T06:56:44.881Z,1.87
2022-12-09T06:59:13.123Z,1.90
2022-12-09T07:01:41.677Z,2.04
2022-12-09T07:04:14.747Z,2.13
2022-12-09T07:06:45.159Z,2.21
2022-12-09T07:09:19.942Z,2.12
2022-12-09T07:11:49.521Z,2.05
2022-12-09T07:14:19.189Z,2.00
2022-12-09T07:16:48.071Z,2.02
2022-12-09T07:19:22.186Z,2.03
2022-12-09T07:21:51.566Z,2.02
2022-12-09T07:24:20.663Z,2.05
2022-12-09T07:26:49.403Z,2.06
2022-12-09T07:29:18.886Z,2.08
2022-12-09T07:31:48.600Z,2.10
2022-12-09T07:34:17.629Z,2.15
2022-12-09T07:36:46.068Z,2.22
2022-12-09T07:39:16.518Z,2.29
2022-12-09T07:41:45.406Z,2.33
2022-12-09T07:44:13.845Z,2.33
2022-12-09T07:46:44.028Z,2.39
2022-12-09T07:49:12.224Z,2.48
2022-12-09T07:51:42.767Z,2.53
2022-12-09T07:54:13.871Z,2.56
2022-12-09T07:56:42.862Z,2.58
2022-12-09T07:59:14.536Z,2.62
2022-12-09T08:01:42.985Z,2.66
2022-12-09T08:04:12.212Z,2.69
2022-12-09T08:06:40.686Z,2.73
2022-12-09T08:09:12.706Z,2.76
2022-12-09T08:11:41.781Z,2.78
2022-12-09T08:14:12.985Z,2.79
2022-12-09T08:16:43.462Z,2.82
2022-12-09T08:19:12.823Z,2.84
2022-12-09T08:21:42.592Z,2.83
2022-12-09T08:24:12.630Z,2.82
2022-12-09T08:26:44.011Z,2.83
2022-12-09T08:29:14.359Z,2.87
2022-12-09T08:31:44.077Z,2.93
2022-12-09T08:34:13.329Z,2.97
2022-12-09T08:36:42.451Z,2.98
2022-12-09T08:39:12.593Z,2.99
2022-12-09T08:41:41.119Z,3.02
2022-12-09T08:44:21.011Z,3.09
2022-12-09T08:46:52.046Z,3.20
2022-12-09T08:49:22.659Z,3.29
2022-12-09T08:51:53.459Z,3.35
2022-12-09T08:54:21.742Z,3.35
2022-12-09T08:56:52.381Z,3.30
2022-12-09T08:59:21.530Z,3.30
2022-12-09T09:01:50.408Z,3.31
2022-12-09T09:04:21.853Z,3.32
2022-12-09T09:06:51.614Z,3.35
2022-12-09T09:09:22.390Z,3.39
2022-12-09T09:11:50.980Z,3.45
2022-12-09T09:14:20.914Z,3.51
2022-12-09T09:16:50.003Z,3.57
2022-12-09T09:19:26.016Z,3.58
2022-12-09T09:21:58.704Z,3.59
2022-12-09T09:24:32.001Z,3.62
2022-12-09T09:27:00.321Z,3.64
2022-12-09T09:29:30.681Z,3.63
2022-12-09T09:32:02.132Z,3.63
2022-12-09T09:34:30.776Z,3.66
2022-12-09T09:36:59.926Z,3.68
2022-12-09T09:39:30.055Z,3.68
2022-12-09T09:42:08.717Z,3.66
2022-12-09T09:44:47.907Z,3.67
2022-12-09T09:47:20.797Z,3.64
2022-12-09T09:50:16.962Z,3.62
2022-12-09T09:52:46.680Z,3.65
2022-12-09T09:55:18.245Z,3.66
2022-12-09T09:58:02.810Z,3.67
2022-12-09T10:00:38.400Z,3.67
2022-12-09T10:03:14.300Z,3.70
2022-12-09T10:05:58.783Z,3.72
2022-12-09T10:09:02.600Z,3.73
2022-12-09T10:11:52.920Z,3.77
2022-12-09T10:14:44.722Z,3.81
2022-12-09T10:17:48.964Z,3.81
2022-12-09T10:20:24.539Z,3.83
2022-12-09T10:23:00.994Z,3.84
2022-12-09T10:25:31.084Z,3.83
2022-12-09T10:28:14.960Z,3.84
2022-12-09T10:30:44.931Z,3.86
2022-12-09T10:33:14.936Z,3.86
2022-12-09T10:35:43.386Z,3.84
2022-12-09T10:38:17.571Z,3.84
2022-12-09T10:40:46.079Z,3.82
2022-12-09T10:43:44.545Z,3.79
2022-12-09T10:46:18.343Z,3.78
2022-12-09T10:48:48.907Z,3.78
2022-12-09T10:51:20.899Z,3.79
2022-12-09T10:54:34.974Z,3.81
2022-12-09T10:57:08.970Z,3.84
2022-12-09T10:59:38.118Z,3.87
2022-12-09T11:02:09.819Z,3.89
2022-12-09T11:04:41.007Z,3.93
2022-12-09T11:07:13.074Z,3.97
2022-12-09T11:09:43.512Z,4.00
2022-12-09T11:12:27.347Z,4.01
2022-12-09T11:15:11.713Z,4.01
2022-12-09T11:17:56.035Z,4.03
2022-12-09T11:20:29.295Z,4.07
2022-12-09T11:23:13.533Z,4.10
2022-12-09T11:26:22.510Z,4.13
2022-12-09T11:29:01.646Z,4.13
2022-12-09T11:31:35.267Z,4.15
2022-12-09T11:34:15.482Z,4.17
2022-12-09T11:36:50.434Z,4.17
2022-12-09T11:39:26.391Z,4.16
2022-12-09T11:42:19.863Z,4.17
2022-12-09T11:45:02.443Z,4.18
2022-12-09T11:47:57.731Z,4.21
2022-12-09T11:50:33.394Z,4.24
2022-12-09T11:53:10.950Z,4.25
2022-12-09T11:55:45.575Z,4.29
2022-12-09T11:58:17.793Z,4.35
2022-12-09T12:01:14.485Z,4.41
2022-12-09T12:03:48.665Z,4.48
2022-12-09T12:06:22.885Z,4.56
2022-12-09T12:09:02.044Z,4.64
2022-12-09T12:11:40.830Z,4.70
2022-12-09T12:14:20.243Z,4.76
2022-12-09T12:17:08.610Z,4.79
2022-12-09T12:19:41.937Z,4.81
2022-12-09T12:22:29.296Z,4.82
2022-12-09T12:25:25.260Z,4.82
2022-12-09T12:28:05.463Z,4.82
2022-12-09T12:30:58.562Z,4.81
2022-12-09T12:34:23.088Z,4.79
2022-12-09T12:37:11.207Z,4.77
2022-12-09T12:39:54.951Z,4.76
2022-12-09T12:43:07.943Z,4.74
2022-12-09T12:46:10.609Z,4.73
2022-12-09T12:48:45.365Z,4.68
2022-12-09T12:51:31.557Z,4.66
2022-12-09T12:54:20.900Z,4.65
2022-12-09T12:56:55.285Z,4.62
2022-12-09T12:59:35.690Z,4.58
2022-12-09T13:02:18.787Z,4.53
2022-12-09T13:04:51.005Z,4.50
2022-12-09T13:07:30.915Z,4.47
2022-12-09T13:10:04.460Z,4.45
2022-12-09T13:13:10.431Z,4.43
2022-12-09T13:15:45.765Z,4.40
2022-12-09T13:18:28.897Z,4.37
2022-12-09T13:20:59.871Z,4.36
2022-12-09T13:23:39.949Z,4.32
2022-12-09T13:26:29.449Z,4.30
2022-12-09T13:29:06.838Z,4.26
2022-12-09T13:31:39.441Z,4.22
2022-12-09T13:34:23.721Z,4.20
2022-12-09T13:36:51.786Z,4.17
2022-12-09T13:39:49.137Z,4.14
2022-12-09T13:42:46.343Z,4.09
2022-12-09T13:45:19.657Z,4.04
2022-12-09T13:47:47.744Z,3.98
2022-12-09T13:50:40.908Z,3.93
2022-12-09T13:53:19.418Z,3.85
2022-12-09T13:55:50.927Z,3.76
2022-12-09T13:58:57.205Z,3.68
2022-12-09T14:01:25.166Z,3.60
2022-12-09T14:04:03.606Z,3.53
2022-12-09T14:06:49.131Z,3.46
2022-12-09T14:09:29.752Z,3.40
2022-12-09T14:12:02.706Z,3.33
2022-12-09T14:14:30.906Z,3.27
2022-12-09T14:17:16.270Z,3.23
2022-12-09T14:20:00.875Z,3.18
2022-12-09T14:22:33.074Z,3.11
2022-12-09T14:25:26.324Z,3.05
2022-12-09T14:28:25.278Z,3.04
2022-12-09T14:31:06.493Z,2.95
2022-12-09T14:33:47.492Z,2.85
2022-12-09T14:36:15.556Z,2.83
2022-12-09T14:39:15.674Z,2.78
2022-12-09T14:42:05.991Z,2.76
2022-12-09T14:44:51.292Z,2.67
2022-12-09T14:47:26.276Z,2.56
2022-12-09T14:49:56.001Z,2.47
2022-12-09T14:52:29.732Z,2.41
2022-12-09T14:55:06.486Z,2.35
2022-12-09T14:57:38.836Z,2.31
2022-12-09T15:00:07.873Z,2.25
2022-12-09T15:02:38.036Z,2.19
2022-12-09T15:05:17.228Z,2.14
2022-12-09T15:07:46.187Z,2.09
2022-12-09T15:10:21.678Z,2.05
2022-12-09T15:12:56.171Z,2.00
2022-12-09T15:15:27.316Z,1.95
2022-12-09T15:18:01.854Z,1.90
2022-12-09T15:20:36.623Z,1.88
2022-12-09T15:23:16.204Z,1.85
2022-12-09T15:26:07.244Z,1.83
2022-12-09T15:28:37.778Z,1.80
2022-12-09T15:31:18.731Z,1.84
2022-12-09T15:33:53.054Z,1.91
2022-12-09T15:36:26.602Z,1.93
2022-12-09T15:39:02.991Z,1.89
2022-12-09T15:41:55.741Z,1.84
2022-12-09T15:44:25.759Z,1.80
2022-12-09T15:46:57.479Z,1.79
2022-12-09T15:49:33.955Z,1.77
2022-12-09T15:52:05.545Z,1.75
2022-12-09T15:54:40.400Z,1.73
2022-12-09T15:57:13.465Z,1.72
2022-12-09T15:59:44.056Z,1.72
2022-12-09T16:02:21.197Z,1.71
2022-12-09T16:04:51.155Z,1.70
2022-12-09T16:07:22.060Z,1.68
2022-12-09T16:10:06.371Z,1.68
2022-12-09T16:12:35.474Z,1.67
2022-12-09T16:15:07.078Z,1.69
2022-12-09T16:17:53.321Z,1.67
2022-12-09T16:20:35.360Z,1.67
2022-12-09T16:23:05.925Z,1.68
2022-12-09T16:25:41.424Z,1.67
2022-12-09T16:28:23.187Z,1.67
2022-12-09T16:30:55.980Z,1.66
2022-12-09T16:33:24.827Z,1.66
2022-12-09T16:35:59.696Z,1.66
2022-12-09T16:38:28.671Z,1.68
2022-12-09T16:40:59.637Z,1.69
2022-12-09T16:43:28.936Z,1.70
2022-12-09T16:46:21.376Z,1.73
2022-12-09T16:48:49.663Z,1.74
2022-12-09T16:51:24.764Z,1.75
2022-12-09T16:53:54.550Z,1.77
2022-12-09T16:56:25.024Z,1.78
2022-12-09T16:58:53.760Z,1.79
2022-12-09T17:01:26.928Z,1.81
2022-12-09T17:04:19.427Z,1.82
2022-12-09T17:06:47.774Z,1.83
2022-12-09T17:09:15.633Z,1.84
2022-12-09T17:11:48.596Z,1.85
2022-12-09T17:14:17.711Z,1.84
2022-12-09T17:16:45.784Z,1.84
2022-12-09T17:19:13.859Z,1.84
2022-12-09T17:21:42.080Z,1.84
2022-12-09T17:24:12.058Z,1.87
2022-12-09T17:26:40.047Z,1.86
2022-12-09T17:29:08.296Z,1.88
2022-12-09T17:31:36.426Z,1.89
2022-12-09T17:34:04.664Z,1.89
2022-12-09T17:36:32.943Z,1.90
2022-12-09T17:39:04.844Z,1.91
2022-12-09T17:41:33.517Z,1.92
2022-12-09T17:44:01.577Z,1.93
2022-12-09T17:46:29.514Z,1.94
2022-12-09T17:49:00.447Z,1.95
2022-12-09T17:51:35.439Z,1.97
2022-12-09T17:54:05.251Z,1.98
2022-12-09T17:56:33.831Z,1.99
2022-12-09T17:59:07.306Z,2.02
2022-12-09T18:01:37.764Z,2.03
2022-12-09T18:04:10.316Z,2.03
2022-12-09T18:06:40.922Z,2.04
2022-12-09T18:09:13.496Z,2.05
2022-12-09T18:11:41.972Z,2.06
2022-12-09T18:14:10.281Z,2.07
2022-12-09T18:16:38.738Z,2.08
2022-12-09T18:19:11.207Z,2.09
2022-12-09T18:21:39.353Z,2.10
2022-12-09T18:24:07.706Z,2.11
2022-12-09T18:26:41.350Z,2.12
2022-12-09T18:29:11.771Z,2.13
2022-12-09T18:31:40.760Z,2.14
2022-12-09T18:34:08.824Z,2.14
2022-12-09T18:36:37.031Z,2.13
2022-12-09T18:39:07.715Z,2.13
2022-12-09T18:41:35.949Z,2.15
2022-12-09T18:44:07.631Z,2.15
2022-12-09T18:46:38.041Z,2.16
2022-12-09T18:49:11.004Z,2.19
2022-12-09T18:51:41.367Z,2.19
2022-12-09T18:54:15.032Z,2.20
2022-12-09T18:56:43.682Z,2.22
2022-12-09T18:59:12.593Z,2.23
2022-12-09T19:01:44.322Z,2.24
2022-12-09T19:04:21.228Z,2.25
2022-12-09T19:06:51.700Z,2.27
2022-12-09T19:09:30.700Z,2.28
2022-12-09T19:12:11.269Z,2.30
2022-12-09T19:14:47.028Z,2.32
2022-12-09T19:17:15.168Z,2.33
2022-12-09T19:19:45.384Z,2.33
2022-12-09T19:22:13.373Z,2.34
2022-12-09T19:24:43.409Z,2.35
2022-12-09T19:27:12.116Z,2.36
2022-12-09T19:29:40.107Z,2.38
2022-12-09T19:32:29.574Z,2.38
2022-12-09T19:34:56.138Z,2.40
2022-12-09T19:37:24.310Z,2.41
2022-12-09T19:39:52.342Z,2.40
2022-12-09T19:42:21.332Z,2.40
2022-12-09T19:45:10.500Z,2.40
2022-12-09T19:47:39.182Z,2.40
2022-12-09T19:50:07.782Z,2.41
2022-12-09T19:52:36.934Z,2.41
2022-12-09T19:55:05.832Z,2.42
2022-12-09T19:57:34.165Z,2.41
2022-12-09T20:00:02.125Z,2.42
2022-12-09T20:02:33.142Z,2.42
2022-12-09T20:05:01.203Z,2.42
2022-12-09T20:07:29.407Z,2.43
2022-12-09T20:09:57.367Z,2.44
2022-12-09T20:12:25.683Z,2.45
2022-12-09T20:14:53.555Z,2.45
2022-12-09T20:17:22.166Z,2.45
2022-12-09T20:19:50.281Z,2.45
2022-12-09T20:22:18.170Z,2.45
2022-12-09T20:24:49.037Z,2.46
2022-12-09T20:27:17.048Z,2.44
2022-12-09T20:29:44.862Z,2.44
2022-12-09T20:32:12.953Z,2.44
2022-12-09T20:34:41.302Z,2.44
2022-12-09T20:37:09.341Z,2.43
2022-12-09T20:39:37.507Z,2.42
2022-12-09T20:42:05.538Z,2.41
2022-12-09T20:44:33.557Z,2.42
2022-12-09T20:47:01.412Z,2.43
2022-12-09T20:49:30.775Z,2.46
2022-12-09T20:51:58.693Z,2.48
2022-12-09T20:54:26.747Z,2.48
2022-12-09T20:56:55.009Z,2.47
2022-12-09T20:59:23.371Z,2.47
2022-12-09T21:01:51.409Z,2.48
2022-12-09T21:04:19.370Z,2.48
2022-12-09T21:06:47.728Z,2.48
2022-12-09T21:09:19.153Z,2.48
2022-12-09T21:11:49.077Z,2.50
2022-12-09T21:14:20.632Z,2.50
2022-12-09T21:16:52.509Z,2.52
2022-12-09T21:19:25.207Z,2.53
2022-12-09T21:21:53.798Z,2.54
2022-12-09T21:24:24.039Z,2.56
2022-12-09T21:26:53.817Z,2.56
2022-12-09T21:29:24.636Z,2.57
2022-12-09T21:31:55.404Z,2.57
2022-12-09T21:34:24.838Z,2.57
2022-12-09T21:36:52.762Z,2.58
2022-12-09T21:39:21.214Z,2.60
2022-12-09T21:41:49.186Z,2.60
2022-12-09T21:44:18.881Z,2.60
2022-12-09T21:46:46.896Z,2.61
2022-12-09T21:49:15.059Z,2.62
2022-12-09T21:51:43.782Z,2.61
2022-12-09T21:54:12.186Z,2.62
2022-12-09T21:56:41.402Z,2.64
2022-12-09T21:59:11.078Z,2.67
2022-12-09T22:01:41.363Z,2.67
2022-12-09T22:04:16.466Z,2.68
2022-12-09T22:06:46.696Z,2.68
2022-12-09T22:09:17.063Z,2.69
2022-12-09T22:11:45.243Z,2.71
2022-12-09T22:14:13.428Z,2.71
2022-12-09T22:16:44.354Z,2.72
2022-12-09T22:19:19.505Z,2.73
2022-12-09T22:21:48.454Z,2.73
2022-12-09T22:24:16.519Z,2.73
2022-12-09T22:26:48.763Z,2.73
2022-12-09T22:29:23.598Z,2.74
2022-12-09T22:31:51.561Z,2.73
2022-12-09T22:34:21.581Z,2.73
2022-12-09T22:37:06.835Z,2.73
2022-12-09T22:39:46.642Z,2.73
2022-12-09T22:42:17.384Z,2.73
2022-12-09T22:44:45.322Z,2.73
2022-12-09T22:47:13.626Z,2.72
2022-12-09T22:49:42.363Z,2.72
2022-12-09T22:52:12.483Z,2.72
2022-12-09T22:54:40.536Z,2.72
2022-12-09T22:57:09.851Z,2.71
2022-12-09T22:59:42.761Z,2.72
2022-12-09T23:02:11.607Z,2.73
2022-12-09T23:04:39.533Z,2.74
2022-12-09T23:07:07.377Z,2.76
2022-12-09T23:09:35.591Z,2.77
2022-12-09T23:12:03.570Z,2.78
2022-12-09T23:14:31.484Z,2.80
2022-12-09T23:16:59.723Z,2.81
2022-12-09T23:19:27.551Z,2.83
2022-12-09T23:21:55.392Z,2.83
2022-12-09T23:24:25.123Z,2.84
2022-12-09T23:26:56.087Z,2.83
2022-12-09T23:29:24.752Z,2.81
2022-12-09T23:31:53.078Z,2.82
2022-12-09T23:34:21.160Z,2.80
2022-12-09T23:36:49.485Z,2.77
2022-12-09T23:39:18.949Z,2.75
2022-12-09T23:41:48.052Z,2.75
2022-12-09T23:44:18.905Z,2.74
2022-12-09T23:46:47.402Z,2.74
2022-12-09T23:49:16.126Z,2.75
2022-12-09T23:51:45.049Z,2.75
2022-12-09T23:54:15.933Z,2.75
2022-12-09T23:56:49.963Z,2.75
2022-12-09T23:59:22.632Z,2.75
